Time;durP1;ratioP1;P1;durP2;ratioP2;P2;SDS_P1;SDS_P2;PMS_P1;PMS_P2;Temp;Humidity;BMP_temperature;BMP_pressure;BME280_temperature;BME280_humidity;BME280_pressure;Samples;Min_cycle;Max_cycle;Signal;HPM_P1;HPM_P2
2021/12/25 00:01:45;;;;;;;;;;;7.00;99.90;;;;;;5002586;28;19922;-73
2021/12/25 00:04:11;;;;;;;;;;;7.00;99.90;;;;;;5002276;28;19922;-73
2021/12/25 00:06:38;;;;;;;;;;;7.00;99.90;;;;;;5002403;28;19968;-73
2021/12/25 00:09:07;;;;;;;;;;;6.90;99.90;;;;;;5002366;28;19922;-73
2021/12/25 00:11:33;;;;;;;;;;;6.90;99.90;;;;;;5002201;28;19926;-73
2021/12/25 00:14:00;;;;;;;;;;;6.90;99.90;;;;;;5001853;28;20248;-75
2021/12/25 00:16:26;;;;;;;;;;;6.90;99.90;;;;;;5002384;28;19922;-73
2021/12/25 00:18:53;;;;;;;;;;;7.00;99.90;;;;;;5002309;28;19922;-73
2021/12/25 00:21:20;;;;;;;;;;;7.00;99.90;;;;;;5002089;28;20220;-72
2021/12/25 00:23:48;;;;;;;;;;;6.90;99.90;;;;;;5001812;28;19922;-76
2021/12/25 00:26:35;;;;;;;;;;;6.90;99.90;;;;;;5002028;28;19922;-73
2021/12/25 00:29:21;;;;;;;;;;;6.90;99.90;;;;;;5002199;28;20113;-75
2021/12/25 00:31:55;;;;;;;;;;;7.00;99.90;;;;;;5002111;28;20120;-72
2021/12/25 00:34:23;;;;;;;;;;;6.90;99.90;;;;;;5001731;28;19993;-73
2021/12/25 00:36:50;;;;;;;;;;;7.00;99.90;;;;;;5001962;28;19929;-75
2021/12/25 00:39:16;;;;;;;;;;;7.00;99.90;;;;;;5001770;28;19922;-73
2021/12/25 00:41:44;;;;;;;;;;;7.00;99.90;;;;;;5001860;28;19948;-73
2021/12/25 00:44:11;;;;;;;;;;;6.90;99.90;;;;;;5001715;28;19922;-73
2021/12/25 00:46:38;;;;;;;;;;;6.90;99.90;;;;;;5001683;28;19928;-72
2021/12/25 00:49:04;;;;;;;;;;;6.90;99.90;;;;;;5001862;28;19922;-73
2021/12/25 00:51:31;;;;;;;;;;;6.90;99.90;;;;;;5001608;28;19921;-73
2021/12/25 00:53:57;;;;;;;;;;;6.90;99.90;;;;;;5001496;28;19921;-73
2021/12/25 00:56:24;;;;;;;;;;;6.90;99.90;;;;;;5001717;28;19922;-73
2021/12/25 00:58:52;;;;;;;;;;;6.90;99.90;;;;;;5001677;28;19922;-73
2021/12/25 01:01:18;;;;;;;;;;;6.90;99.90;;;;;;5001477;28;19925;-73
2021/12/25 01:03:47;;;;;;;;;;;6.90;99.90;;;;;;5001611;28;19930;-72
2021/12/25 01:06:14;;;;;;;;;;;6.90;99.90;;;;;;5000796;28;19922;-73
2021/12/25 01:08:40;;;;;;;;;;;6.90;99.90;;;;;;5001388;28;19928;-72
2021/12/25 01:11:07;;;;;;;;;;;6.80;99.90;;;;;;5001402;28;19922;-73
2021/12/25 01:13:38;;;;;;;;;;;6.90;99.90;;;;;;5001273;28;19993;-73
2021/12/25 01:16:21;;;;;;;;;;;6.90;99.90;;;;;;5001450;28;19922;-73
2021/12/25 01:19:23;;;;;;;;;;;6.90;99.90;;;;;;5001638;28;19922;-73
2021/12/25 01:22:08;;;;;;;;;;;6.90;99.90;;;;;;5001090;28;19922;-73
2021/12/25 01:24:59;;;;;;;;;;;6.90;99.90;;;;;;5001004;28;19925;-73
2021/12/25 01:30:15;;;;;;;;;;;6.90;99.90;;;;;;5001241;28;19924;-73
2021/12/25 01:39:00;;;;;;;;;;;6.90;99.90;;;;;;5121313;27;19958;-74
2021/12/25 01:41:56;;;;;;;;;;;6.90;99.90;;;;;;5121360;28;20105;-74
2021/12/25 01:49:51;;;;;;;;;;;6.90;99.90;;;;;;5120731;28;19935;-73
2021/12/25 01:52:19;;;;;;;;;;;6.80;99.90;;;;;;5121124;28;19920;-73
2021/12/25 01:54:47;;;;;;;;;;;6.80;99.90;;;;;;5120421;28;19991;-73
2021/12/25 01:57:13;;;;;;;;;;;6.80;99.90;;;;;;5120729;28;19935;-73
2021/12/25 01:59:40;;;;;;;;;;;6.80;99.90;;;;;;5120718;28;19927;-73
2021/12/25 02:02:07;;;;;;;;;;;6.80;99.90;;;;;;5120662;28;20305;-73
2021/12/25 02:04:33;;;;;;;;;;;6.80;99.90;;;;;;5120713;28;19936;-73
2021/12/25 02:07:00;;;;;;;;;;;6.80;99.90;;;;;;5120749;28;19926;-73
2021/12/25 02:09:27;;;;;;;;;;;6.90;99.90;;;;;;5120746;28;20223;-73
2021/12/25 02:11:54;;;;;;;;;;;6.80;99.90;;;;;;5120580;28;19920;-74
2021/12/25 02:14:21;;;;;;;;;;;6.80;99.90;;;;;;5120273;28;19958;-74
2021/12/25 02:16:54;;;;;;;;;;;6.80;99.90;;;;;;5120315;28;20215;-74
2021/12/25 02:19:33;;;;;;;;;;;6.80;99.90;;;;;;5120652;28;20115;-74
2021/12/25 02:22:02;;;;;;;;;;;6.80;99.90;;;;;;5120222;28;20207;-74
2021/12/25 02:24:29;;;;;;;;;;;6.80;99.90;;;;;;5120154;28;19951;-74
2021/12/25 02:26:56;;;;;;;;;;;6.80;99.90;;;;;;5120348;28;19920;-73
2021/12/25 02:29:22;;;;;;;;;;;6.70;99.90;;;;;;5120126;28;19920;-74
2021/12/25 02:31:49;;;;;;;;;;;6.70;99.90;;;;;;5120316;28;19919;-73
2021/12/25 02:34:16;;;;;;;;;;;6.70;99.90;;;;;;5120034;28;19920;-73
2021/12/25 02:36:42;;;;;;;;;;;6.70;99.90;;;;;;5122975;28;19990;-74
2021/12/25 02:39:10;;;;;;;;;;;6.70;99.90;;;;;;5140577;27;19920;-73
2021/12/25 02:41:37;;;;;;;;;;;6.70;99.90;;;;;;5140366;28;19923;-73
2021/12/25 02:44:04;;;;;;;;;;;6.70;99.90;;;;;;5139947;27;19928;-73
2021/12/25 02:46:30;;;;;;;;;;;6.70;99.90;;;;;;5140295;28;19926;-73
2021/12/25 02:48:58;;;;;;;;;;;6.70;99.90;;;;;;5133871;28;19919;-74
2021/12/25 02:51:25;;;;;;;;;;;6.70;99.90;;;;;;5126670;28;19923;-74
2021/12/25 02:53:52;;;;;;;;;;;6.70;99.90;;;;;;5126287;28;19919;-73
2021/12/25 02:56:20;;;;;;;;;;;6.70;99.90;;;;;;5126397;28;19927;-73
2021/12/25 02:58:46;;;;;;;;;;;6.70;99.90;;;;;;5126685;28;19924;-73
2021/12/25 03:01:14;;;;;;;;;;;6.70;99.90;;;;;;5126457;28;19920;-73
2021/12/25 03:03:41;;;;;;;;;;;6.70;99.90;;;;;;5126356;28;19919;-73
2021/12/25 03:06:09;;;;;;;;;;;6.70;99.90;;;;;;5126256;28;19920;-74
2021/12/25 03:08:36;;;;;;;;;;;6.70;99.90;;;;;;5126169;28;19934;-74
2021/12/25 03:11:06;;;;;;;;;;;6.70;99.90;;;;;;5126044;28;20226;-75
2021/12/25 03:13:36;;;;;;;;;;;6.60;99.90;;;;;;5126153;28;19920;-73
2021/12/25 03:16:07;;;;;;;;;;;6.70;99.90;;;;;;5126222;28;20130;-74
2021/12/25 03:18:39;;;;;;;;;;;6.70;99.90;;;;;;5125971;28;20273;-73
2021/12/25 03:21:06;;;;;;;;;;;6.70;99.90;;;;;;5126005;28;20100;-74
2021/12/25 03:23:34;;;;;;;;;;;6.70;99.90;;;;;;5125568;28;19960;-74
2021/12/25 03:26:01;;;;;;;;;;;6.70;99.90;;;;;;5126223;28;19926;-73
2021/12/25 03:28:30;;;;;;;;;;;6.80;99.90;;;;;;5125915;28;19927;-73
2021/12/25 03:31:01;;;;;;;;;;;6.70;99.90;;;;;;5125815;28;19951;-74
2021/12/25 03:33:28;;;;;;;;;;;6.60;99.90;;;;;;5125813;28;20119;-74
2021/12/25 03:35:54;;;;;;;;;;;6.60;99.90;;;;;;5125467;28;20219;-75
2021/12/25 03:38:21;;;;;;;;;;;6.60;99.90;;;;;;5126086;28;20111;-74
2021/12/25 03:40:49;;;;;;;;;;;6.60;99.90;;;;;;5125632;28;20198;-74
2021/12/25 03:43:16;;;;;;;;;;;6.60;99.90;;;;;;5125609;28;19920;-73
2021/12/25 03:45:42;;;;;;;;;;;6.60;99.90;;;;;;5125336;28;19927;-74
2021/12/25 03:48:15;;;;;;;;;;;6.60;99.90;;;;;;5125462;28;20174;-74
2021/12/25 03:53:38;;;;;;;;;;;6.50;99.90;;;;;;5125479;28;19922;-74
2021/12/25 03:58:50;;;;;;;;;;;6.50;99.90;;;;;;5125328;28;19962;-73
2021/12/25 04:01:28;;;;;;;;;;;6.50;99.90;;;;;;5124320;28;19973;-73
2021/12/25 04:04:10;;;;;;;;;;;6.40;99.90;;;;;;5124939;28;19920;-73
2021/12/25 04:06:44;;;;;;;;;;;6.40;99.90;;;;;;5125124;28;20120;-74
2021/12/25 04:09:20;;;;;;;;;;;6.40;99.90;;;;;;5125091;28;20208;-74
2021/12/25 04:11:47;;;;;;;;;;;6.30;99.90;;;;;;5125340;28;20122;-76
2021/12/25 04:14:14;;;;;;;;;;;6.30;99.90;;;;;;5124795;28;19920;-74
2021/12/25 04:16:40;;;;;;;;;;;6.30;99.90;;;;;;5125084;28;19920;-73
2021/12/25 04:19:09;;;;;;;;;;;6.30;99.90;;;;;;5124773;28;19924;-75
2021/12/25 04:21:36;;;;;;;;;;;6.30;99.90;;;;;;5124745;28;20164;-74
2021/12/25 04:24:03;;;;;;;;;;;6.30;99.90;;;;;;5124378;28;20174;-74
2021/12/25 04:26:30;;;;;;;;;;;6.30;99.90;;;;;;5125051;28;19924;-74
2021/12/25 04:29:05;;;;;;;;;;;6.30;99.90;;;;;;5125094;28;19920;-74
2021/12/25 04:31:46;;;;;;;;;;;6.30;99.90;;;;;;5124696;28;19919;-75
2021/12/25 04:42:52;;;;;;;;;;;6.30;99.90;;;;;;5124511;28;19938;-74
2021/12/25 04:49:02;;;;;;;;;;;6.30;99.90;;;;;;5085283;28;19923;-75
2021/12/25 05:02:32;;;;;;;;;;;6.20;99.90;;;;;;5092621;28;19922;-73
2021/12/25 05:05:02;;;;;;;;;;;6.40;99.90;;;;;;5123878;28;19986;-73
2021/12/25 05:07:30;;;;;;;;;;;6.30;99.90;;;;;;5124107;28;20175;-74
2021/12/25 05:09:58;;;;;;;;;;;6.30;99.90;;;;;;5124169;28;19920;-74
2021/12/25 05:12:25;;;;;;;;;;;6.30;99.90;;;;;;5123801;28;19987;-74
2021/12/25 05:14:52;;;;;;;;;;;6.30;99.90;;;;;;5123576;28;19928;-74
2021/12/25 05:17:18;;;;;;;;;;;6.20;99.90;;;;;;5123868;28;20230;-74
2021/12/25 05:19:45;;;;;;;;;;;6.30;99.90;;;;;;5123735;28;20123;-74
2021/12/25 05:22:14;;;;;;;;;;;6.30;99.90;;;;;;5123596;28;20112;-73
2021/12/25 05:24:42;;;;;;;;;;;6.30;99.90;;;;;;5123811;28;19927;-73
2021/12/25 05:27:09;;;;;;;;;;;6.30;99.90;;;;;;5123938;28;19952;-73
2021/12/25 05:29:37;;;;;;;;;;;6.30;99.90;;;;;;5124039;28;19987;-74
2021/12/25 05:32:04;;;;;;;;;;;6.20;99.90;;;;;;5123630;28;19988;-73
2021/12/25 05:34:31;;;;;;;;;;;6.20;99.90;;;;;;5123492;28;19919;-73
2021/12/25 05:36:57;;;;;;;;;;;6.20;99.90;;;;;;5123468;28;19935;-74
2021/12/25 05:39:24;;;;;;;;;;;6.20;99.90;;;;;;5123456;28;20230;-74
2021/12/25 05:41:52;;;;;;;;;;;6.30;99.90;;;;;;5123668;28;19919;-73
2021/12/25 05:44:18;;;;;;;;;;;6.30;99.90;;;;;;5123476;28;19920;-73
2021/12/25 05:46:45;;;;;;;;;;;6.30;99.90;;;;;;5123551;28;19920;-74
2021/12/25 05:49:11;;;;;;;;;;;6.30;99.90;;;;;;5123549;28;19920;-73
2021/12/25 05:51:39;;;;;;;;;;;6.20;99.90;;;;;;5123441;28;19920;-74
2021/12/25 05:54:06;;;;;;;;;;;6.20;99.90;;;;;;5123478;28;19920;-76
2021/12/25 05:56:33;;;;;;;;;;;6.20;99.90;;;;;;5123588;28;19920;-72
2021/12/25 05:59:01;;;;;;;;;;;6.20;99.90;;;;;;5123285;28;19926;-73
2021/12/25 06:01:28;;;;;;;;;;;6.20;99.90;;;;;;5123280;28;20096;-73
2021/12/25 06:03:56;;;;;;;;;;;6.10;99.90;;;;;;5122953;28;19976;-73
2021/12/25 06:06:22;;;;;;;;;;;6.10;99.90;;;;;;5123363;28;19986;-73
2021/12/25 06:08:49;;;;;;;;;;;6.10;99.90;;;;;;5123647;28;19965;-74
2021/12/25 06:11:16;;;;;;;;;;;6.10;99.90;;;;;;5123541;28;19927;-73
2021/12/25 06:13:54;;;;;;;;;;;6.10;99.90;;;;;;5123259;28;19987;-75
2021/12/25 06:16:22;;;;;;;;;;;6.10;99.90;;;;;;5123562;28;19919;-74
2021/12/25 06:18:49;;;;;;;;;;;6.20;99.90;;;;;;5123562;28;19920;-75
2021/12/25 06:21:15;;;;;;;;;;;6.10;99.90;;;;;;5123485;28;19920;-73
2021/12/25 06:23:42;;;;;;;;;;;6.10;99.90;;;;;;5123787;28;19986;-75
2021/12/25 06:26:09;;;;;;;;;;;6.10;99.90;;;;;;5127219;28;19920;-75
2021/12/25 06:28:35;;;;;;;;;;;6.10;99.90;;;;;;5127027;28;19926;-75
2021/12/25 06:31:02;;;;;;;;;;;6.10;99.90;;;;;;5126779;28;19920;-74
2021/12/25 06:33:30;;;;;;;;;;;6.10;99.90;;;;;;5127215;28;19926;-73
2021/12/25 06:35:56;;;;;;;;;;;6.10;99.90;;;;;;5126907;28;20211;-74
2021/12/25 06:38:23;;;;;;;;;;;6.20;99.90;;;;;;5126741;28;19920;-75
2021/12/25 06:40:49;;;;;;;;;;;6.20;99.90;;;;;;5126800;28;19973;-75
2021/12/25 06:43:16;;;;;;;;;;;6.20;99.90;;;;;;5126944;28;19926;-75
2021/12/25 06:45:43;;;;;;;;;;;6.20;99.90;;;;;;5126309;28;19927;-74
2021/12/25 06:48:09;;;;;;;;;;;6.20;99.90;;;;;;5126756;28;19920;-76
2021/12/25 06:50:37;;;;;;;;;;;6.30;99.90;;;;;;5126848;28;19924;-75
2021/12/25 06:53:04;;;;;;;;;;;6.30;99.90;;;;;;5126665;28;19920;-74
2021/12/25 06:55:30;;;;;;;;;;;6.40;99.90;;;;;;5126272;28;19920;-75
2021/12/25 06:57:59;;;;;;;;;;;6.40;99.90;;;;;;5126328;28;19942;-74
2021/12/25 07:00:27;;;;;;;;;;;6.30;99.90;;;;;;5126375;28;19919;-75
2021/12/25 07:02:55;;;;;;;;;;;6.30;99.90;;;;;;5126633;28;19920;-74
2021/12/25 07:05:21;;;;;;;;;;;6.30;99.90;;;;;;5126340;28;19923;-74
2021/12/25 07:07:50;;;;;;;;;;;6.30;99.90;;;;;;5126269;28;19926;-74
2021/12/25 07:10:16;;;;;;;;;;;6.20;99.90;;;;;;5126757;28;19920;-75
2021/12/25 07:12:46;;;;;;;;;;;6.20;99.90;;;;;;5126196;28;20123;-75
2021/12/25 07:15:13;;;;;;;;;;;6.20;99.90;;;;;;5126194;28;20124;-75
2021/12/25 07:17:40;;;;;;;;;;;6.10;99.90;;;;;;5126351;28;19942;-75
2021/12/25 07:20:07;;;;;;;;;;;6.10;99.90;;;;;;5126363;28;20054;-74
2021/12/25 07:22:34;;;;;;;;;;;6.10;99.90;;;;;;5126089;28;19920;-75
2021/12/25 07:25:01;;;;;;;;;;;6.10;99.90;;;;;;5125701;28;19919;-75
2021/12/25 07:27:28;;;;;;;;;;;6.10;99.90;;;;;;5125914;28;20151;-75
2021/12/25 07:29:55;;;;;;;;;;;6.10;99.90;;;;;;5125749;28;19920;-74
2021/12/25 07:32:21;;;;;;;;;;;6.10;99.90;;;;;;5126357;28;20226;-72
2021/12/25 07:34:49;;;;;;;;;;;6.00;99.90;;;;;;5126373;28;19919;-75
2021/12/25 07:37:16;;;;;;;;;;;6.00;99.90;;;;;;5126591;28;19920;-74
2021/12/25 07:39:43;;;;;;;;;;;6.00;99.90;;;;;;5126515;28;19923;-75
2021/12/25 07:42:11;;;;;;;;;;;6.10;99.90;;;;;;5126268;28;19927;-73
2021/12/25 07:44:37;;;;;;;;;;;6.00;99.90;;;;;;5126309;28;19923;-75
2021/12/25 07:47:08;;;;;;;;;;;6.10;99.90;;;;;;5126106;28;19943;-73
2021/12/25 07:49:35;;;;;;;;;;;6.00;99.90;;;;;;5126091;28;19944;-75
2021/12/25 07:52:01;;;;;;;;;;;6.00;99.90;;;;;;5126071;28;19926;-76
2021/12/25 07:54:28;;;;;;;;;;;6.10;99.90;;;;;;5125689;28;19926;-76
2021/12/25 07:56:55;;;;;;;;;;;6.10;99.90;;;;;;5126296;28;19920;-76
2021/12/25 07:59:23;;;;;;;;;;;6.10;99.90;;;;;;5125436;28;20199;-75
2021/12/25 08:01:49;;;;;;;;;;;6.10;99.90;;;;;;5125388;28;19919;-73
2021/12/25 08:04:17;;;;;;;;;;;6.10;99.90;;;;;;5124929;28;19926;-76
2021/12/25 08:06:44;;;;;;;;;;;6.10;99.90;;;;;;5125422;28;20264;-75
2021/12/25 08:09:10;;;;;;;;;;;6.10;99.90;;;;;;5125425;28;20123;-76
2021/12/25 08:11:37;;;;;;;;;;;6.10;99.90;;;;;;5125291;28;19946;-76
2021/12/25 08:14:03;;;;;;;;;;;6.10;99.90;;;;;;5125271;28;19920;-76
2021/12/25 08:16:31;;;;;;;;;;;6.10;99.90;;;;;;5125501;28;19920;-76
2021/12/25 08:18:58;;;;;;;;;;;6.10;99.90;;;;;;5125613;28;19926;-76
2021/12/25 08:21:24;;;;;;;;;;;6.10;99.90;;;;;;5125428;28;19926;-76
2021/12/25 08:23:54;;;;;;;;;;;6.00;99.90;;;;;;5125410;28;19927;-76
2021/12/25 08:26:21;;;;;;;;;;;6.10;99.90;;;;;;5125646;28;19923;-76
2021/12/25 08:28:47;;;;;;;;;;;6.10;99.90;;;;;;5125249;28;19927;-75
2021/12/25 08:31:14;;;;;;;;;;;6.10;99.90;;;;;;5125448;28;19920;-76
2021/12/25 08:33:42;;;;;;;;;;;6.10;99.90;;;;;;5124921;28;19920;-76
2021/12/25 08:36:09;;;;;;;;;;;6.10;99.90;;;;;;5125407;28;20157;-76
2021/12/25 08:38:35;;;;;;;;;;;6.00;99.90;;;;;;5125043;28;19979;-75
2021/12/25 08:41:02;;;;;;;;;;;6.10;99.90;;;;;;5125120;28;19926;-76
2021/12/25 08:43:34;;;;;;;;;;;6.10;99.90;;;;;;5125320;28;20092;-75
2021/12/25 08:46:11;;;;;;;;;;;6.00;99.90;;;;;;5125035;28;20226;-76
2021/12/25 08:48:38;;;;;;;;;;;6.10;99.90;;;;;;5124741;28;20211;-76
2021/12/25 08:51:06;;;;;;;;;;;6.10;99.90;;;;;;5124876;28;19920;-75
2021/12/25 08:53:35;;;;;;;;;;;6.20;99.90;;;;;;5124382;28;19928;-76
2021/12/25 08:56:01;;;;;;;;;;;6.20;99.90;;;;;;5125035;28;19920;-76
2021/12/25 08:58:30;;;;;;;;;;;6.20;99.90;;;;;;5125217;28;20114;-76
2021/12/25 09:01:00;;;;;;;;;;;6.30;99.90;;;;;;5125067;28;19923;-76
2021/12/25 09:03:27;;;;;;;;;;;6.30;99.90;;;;;;5125169;28;20172;-76
2021/12/25 09:05:54;;;;;;;;;;;6.30;99.90;;;;;;5124797;28;20172;-76
2021/12/25 09:08:22;;;;;;;;;;;6.30;99.90;;;;;;5124830;28;19939;-76
2021/12/25 09:10:49;;;;;;;;;;;6.30;99.90;;;;;;5124814;28;19919;-76
2021/12/25 09:13:15;;;;;;;;;;;6.30;99.90;;;;;;5124935;28;19920;-75
2021/12/25 09:15:42;;;;;;;;;;;6.40;99.90;;;;;;5123834;28;19926;-75
2021/12/25 09:18:09;;;;;;;;;;;6.40;99.90;;;;;;5124400;28;19920;-76
2021/12/25 09:20:36;;;;;;;;;;;6.40;99.90;;;;;;5124107;28;19926;-75
2021/12/25 09:23:03;;;;;;;;;;;6.40;99.90;;;;;;5124099;28;19942;-76
2021/12/25 09:25:32;;;;;;;;;;;6.40;99.90;;;;;;5123786;28;19926;-74
2021/12/25 09:27:59;;;;;;;;;;;6.40;99.90;;;;;;5124013;28;20254;-75
2021/12/25 09:30:26;;;;;;;;;;;6.30;99.90;;;;;;5124022;28;19920;-75
2021/12/25 09:32:53;;;;;;;;;;;6.20;99.90;;;;;;5124074;28;19919;-76
2021/12/25 09:35:20;;;;;;;;;;;6.20;99.90;;;;;;5124193;28;19926;-76
2021/12/25 09:37:46;;;;;;;;;;;6.10;99.90;;;;;;5123964;28;20229;-76
2021/12/25 09:40:13;;;;;;;;;;;6.00;99.90;;;;;;5124009;28;20199;-76
2021/12/25 09:42:43;;;;;;;;;;;5.90;99.90;;;;;;5124273;28;20141;-76
2021/12/25 09:45:10;;;;;;;;;;;5.80;99.90;;;;;;5124115;28;19926;-76
2021/12/25 09:47:37;;;;;;;;;;;5.70;99.90;;;;;;5123893;28;19920;-75
2021/12/25 09:50:04;;;;;;;;;;;5.60;99.90;;;;;;5124152;28;19926;-75
2021/12/25 09:52:30;;;;;;;;;;;5.50;99.90;;;;;;5124025;28;19926;-75
2021/12/25 09:54:57;;;;;;;;;;;5.40;99.90;;;;;;5123658;28;19920;-75
2021/12/25 09:57:24;;;;;;;;;;;5.40;99.90;;;;;;5124151;28;19919;-75
2021/12/25 09:59:53;;;;;;;;;;;5.30;99.90;;;;;;5126575;28;19920;-75
2021/12/25 10:02:20;;;;;;;;;;;5.30;99.90;;;;;;5128484;28;19926;-75
2021/12/25 10:04:47;;;;;;;;;;;5.20;99.90;;;;;;5128131;28;19926;-76
2021/12/25 10:07:16;;;;;;;;;;;5.20;99.90;;;;;;5128255;28;19926;-74
2021/12/25 10:09:43;;;;;;;;;;;5.20;99.90;;;;;;5128424;28;19943;-75
2021/12/25 10:12:12;;;;;;;;;;;5.20;99.90;;;;;;5127749;28;19919;-76
2021/12/25 10:14:39;;;;;;;;;;;5.10;99.90;;;;;;5127597;28;19926;-75
2021/12/25 10:17:14;;;;;;;;;;;5.10;99.90;;;;;;5128161;28;19981;-75
2021/12/25 10:19:41;;;;;;;;;;;5.10;99.90;;;;;;5127702;28;19920;-76
2021/12/25 10:22:10;;;;;;;;;;;5.00;99.90;;;;;;5127989;28;19919;-75
2021/12/25 10:24:48;;;;;;;;;;;5.00;99.90;;;;;;5127700;28;19923;-75
2021/12/25 10:27:15;;;;;;;;;;;4.90;99.90;;;;;;5128083;28;19920;-75
2021/12/25 10:29:42;;;;;;;;;;;4.80;99.90;;;;;;5128036;28;19987;-76
2021/12/25 10:32:18;;;;;;;;;;;4.60;99.90;;;;;;5127131;28;20199;-75
2021/12/25 10:34:45;;;;;;;;;;;4.60;99.90;;;;;;5126898;28;19946;-74
2021/12/25 10:37:12;;;;;;;;;;;4.50;99.90;;;;;;5127192;28;19926;-75
2021/12/25 10:39:40;;;;;;;;;;;4.40;99.90;;;;;;5127670;28;19927;-75
2021/12/25 10:42:11;;;;;;;;;;;4.40;99.90;;;;;;5126918;28;19990;-75
2021/12/25 10:44:38;;;;;;;;;;;4.40;99.90;;;;;;5126831;28;19926;-74
2021/12/25 10:47:06;;;;;;;;;;;4.30;99.90;;;;;;5126747;28;19920;-75
2021/12/25 10:49:37;;;;;;;;;;;4.30;99.90;;;;;;5126861;28;19995;-75
2021/12/25 10:52:12;;;;;;;;;;;4.30;99.90;;;;;;5127129;28;20153;-75
2021/12/25 10:54:40;;;;;;;;;;;4.30;99.90;;;;;;5126476;28;19920;-75
2021/12/25 10:57:07;;;;;;;;;;;4.30;99.90;;;;;;5126759;27;20146;-75
2021/12/25 10:59:42;;;;;;;;;;;4.20;99.90;;;;;;5126520;28;19919;-74
2021/12/25 11:02:09;;;;;;;;;;;4.20;99.90;;;;;;5126789;28;19920;-75
2021/12/25 11:04:37;;;;;;;;;;;4.20;99.90;;;;;;5126236;28;19927;-75
2021/12/25 11:07:13;;;;;;;;;;;4.20;99.90;;;;;;5126508;28;19923;-75
2021/12/25 11:09:40;;;;;;;;;;;4.10;99.90;;;;;;5125927;28;19920;-75
2021/12/25 11:12:20;;;;;;;;;;;4.00;99.90;;;;;;5126338;28;19989;-75
2021/12/25 11:14:48;;;;;;;;;;;4.00;99.90;;;;;;5126243;28;19951;-75
2021/12/25 11:17:21;;;;;;;;;;;4.10;99.90;;;;;;5126743;28;19928;-75
2021/12/25 11:19:57;;;;;;;;;;;4.00;99.90;;;;;;5126311;28;19931;-75
2021/12/25 11:22:25;;;;;;;;;;;4.10;99.90;;;;;;5126239;28;19982;-75
2021/12/25 11:24:52;;;;;;;;;;;4.00;99.90;;;;;;5125873;28;19919;-75
2021/12/25 11:27:20;;;;;;;;;;;4.00;99.90;;;;;;5126458;28;19920;-74
2021/12/25 11:29:47;;;;;;;;;;;3.90;99.90;;;;;;5126322;28;19957;-74
2021/12/25 11:32:15;;;;;;;;;;;4.00;99.90;;;;;;5123082;28;19920;-75
2021/12/25 11:34:41;;;;;;;;;;;3.90;99.90;;;;;;5123299;28;19978;-74
2021/12/25 11:37:09;;;;;;;;;;;3.90;99.90;;;;;;5125489;28;19920;-74
2021/12/25 11:39:36;;;;;;;;;;;3.90;99.90;;;;;;5125687;28;19920;-74
2021/12/25 11:42:07;;;;;;;;;;;3.90;99.90;;;;;;5113291;28;19920;-74
2021/12/25 11:44:39;;;;;;;;;;;3.90;99.90;;;;;;5105125;28;19920;-74
2021/12/25 11:47:07;;;;;;;;;;;3.80;99.90;;;;;;5104771;28;19920;-74
2021/12/25 11:49:34;;;;;;;;;;;3.80;99.90;;;;;;5109791;28;19991;-74
2021/12/25 11:52:14;;;;;;;;;;;3.80;99.90;;;;;;5125803;28;20123;-75
2021/12/25 11:55:09;;;;;;;;;;;3.80;99.90;;;;;;5125472;28;19920;-74
2021/12/25 11:57:50;;;;;;;;;;;3.80;99.90;;;;;;5125827;28;20089;-72
2021/12/25 12:00:32;;;;;;;;;;;3.80;99.90;;;;;;5125963;28;20119;-71
2021/12/25 12:02:58;;;;;;;;;;;3.80;99.90;;;;;;5128447;28;19923;-71
2021/12/25 12:05:27;;;;;;;;;;;3.70;99.90;;;;;;5125802;28;19927;-72
2021/12/25 12:08:04;;;;;;;;;;;3.60;99.90;;;;;;5110006;28;19966;-73
2021/12/25 12:10:45;;;;;;;;;;;3.60;99.90;;;;;;5104899;28;19920;-72
2021/12/25 12:13:16;;;;;;;;;;;3.60;99.90;;;;;;5104948;28;19924;-72
2021/12/25 12:15:46;;;;;;;;;;;3.60;99.90;;;;;;5104789;28;19920;-72
2021/12/25 12:18:36;;;;;;;;;;;3.60;99.90;;;;;;5104670;28;19920;-72
2021/12/25 12:21:08;;;;;;;;;;;3.60;99.90;;;;;;5088576;28;19920;-72
2021/12/25 12:23:46;;;;;;;;;;;3.60;99.90;;;;;;5104172;28;19943;-71
2021/12/25 12:26:13;;;;;;;;;;;3.50;99.90;;;;;;5104661;28;20145;-71
2021/12/25 12:28:44;;;;;;;;;;;3.50;99.90;;;;;;5104628;28;19924;-72
2021/12/25 12:31:26;;;;;;;;;;;3.50;99.90;;;;;;5104372;28;19920;-71
2021/12/25 12:33:52;;;;;;;;;;;3.50;99.90;;;;;;5104296;28;19920;-71
2021/12/25 12:36:23;;;;;;;;;;;3.50;99.90;;;;;;5104562;28;20208;-71
2021/12/25 12:38:55;;;;;;;;;;;3.50;99.90;;;;;;5104626;28;19927;-71
2021/12/25 12:41:27;;;;;;;;;;;3.50;99.90;;;;;;5114048;28;19920;-71
2021/12/25 12:43:55;;;;;;;;;;;3.50;99.90;;;;;;5124353;28;20225;-71
2021/12/25 12:46:22;;;;;;;;;;;3.40;99.90;;;;;;5124779;28;19926;-72
2021/12/25 12:49:07;;;;;;;;;;;3.30;99.90;;;;;;5125263;28;19920;-71
2021/12/25 12:51:34;;;;;;;;;;;3.30;99.90;;;;;;5124801;28;19926;-71
2021/12/25 12:54:02;;;;;;;;;;;3.30;99.90;;;;;;5124494;28;19919;-71
2021/12/25 12:56:29;;;;;;;;;;;3.30;99.90;;;;;;5124663;28;20093;-72
2021/12/25 12:58:57;;;;;;;;;;;3.20;99.90;;;;;;5125106;28;19920;-71
2021/12/25 13:01:24;;;;;;;;;;;3.20;99.90;;;;;;5125072;28;20172;-71
2021/12/25 13:03:55;;;;;;;;;;;3.20;99.90;;;;;;5124757;28;19926;-72
2021/12/25 13:06:21;;;;;;;;;;;3.20;99.90;;;;;;5124734;28;19920;-71
2021/12/25 13:08:48;;;;;;;;;;;3.20;99.90;;;;;;5124422;28;19920;-72
2021/12/25 13:11:22;;;;;;;;;;;3.20;99.90;;;;;;5124261;28;19974;-71
2021/12/25 13:13:53;;;;;;;;;;;3.10;99.90;;;;;;5124183;28;19927;-70
2021/12/25 13:16:23;;;;;;;;;;;3.20;99.90;;;;;;5124351;28;19983;-70
2021/12/25 13:18:54;;;;;;;;;;;3.10;99.90;;;;;;5123964;28;19942;-70
2021/12/25 13:21:22;;;;;;;;;;;3.10;99.90;;;;;;5124517;28;19933;-70
2021/12/25 13:23:53;;;;;;;;;;;3.10;99.90;;;;;;5124010;28;20099;-70
2021/12/25 13:26:22;;;;;;;;;;;3.10;99.90;;;;;;5111440;28;19920;-70
2021/12/25 13:28:50;;;;;;;;;;;3.00;99.90;;;;;;5104204;28;19920;-69
2021/12/25 13:31:19;;;;;;;;;;;3.00;99.90;;;;;;5103269;28;19920;-72
2021/12/25 13:33:47;;;;;;;;;;;3.10;99.90;;;;;;5101807;28;20200;-69
2021/12/25 13:36:15;;;;;;;;;;;3.10;99.90;;;;;;5103990;28;19920;-70
2021/12/25 13:38:46;;;;;;;;;;;3.00;99.90;;;;;;5103591;28;19920;-69
2021/12/25 13:41:13;;;;;;;;;;;3.10;99.90;;;;;;5103754;28;19924;-70
2021/12/25 13:43:41;;;;;;;;;;;3.10;99.90;;;;;;5103471;28;19924;-71
2021/12/25 13:46:07;;;;;;;;;;;3.10;99.90;;;;;;5104020;28;19920;-71
2021/12/25 13:48:37;;;;;;;;;;;3.00;99.90;;;;;;5103861;28;19991;-70
2021/12/25 13:51:03;;;;;;;;;;;3.00;99.90;;;;;;5104152;28;19920;-70
2021/12/25 13:53:31;;;;;;;;;;;3.00;99.90;;;;;;5103446;28;20100;-71
2021/12/25 13:55:58;;;;;;;;;;;3.00;99.90;;;;;;5103255;28;19920;-71
2021/12/25 13:58:27;;;;;;;;;;;3.00;99.90;;;;;;5103339;28;19920;-71
2021/12/25 14:00:55;;;;;;;;;;;3.00;99.90;;;;;;5103141;28;19959;-71
2021/12/25 14:03:22;;;;;;;;;;;2.90;99.90;;;;;;5103172;28;19920;-71
2021/12/25 14:05:50;;;;;;;;;;;2.90;99.90;;;;;;5103241;28;19920;-71
2021/12/25 14:08:19;;;;;;;;;;;2.90;99.90;;;;;;5103316;28;19920;-71
2021/12/25 14:10:46;;;;;;;;;;;2.90;99.90;;;;;;5103267;28;19926;-71
2021/12/25 14:13:15;;;;;;;;;;;2.90;99.90;;;;;;5103046;28;19920;-71
2021/12/25 14:15:43;;;;;;;;;;;2.90;99.90;;;;;;5102600;28;19933;-72
2021/12/25 14:18:11;;;;;;;;;;;2.90;99.90;;;;;;5103053;28;19928;-72
2021/12/25 14:20:39;;;;;;;;;;;2.90;99.90;;;;;;5103122;28;19927;-66
2021/12/25 14:23:07;;;;;;;;;;;2.90;99.90;;;;;;5103128;28;19926;-72
2021/12/25 14:25:36;;;;;;;;;;;2.90;99.90;;;;;;5104002;28;20226;-72
2021/12/25 14:28:04;;;;;;;;;;;2.90;99.90;;;;;;5108479;28;19926;-72
2021/12/25 14:30:32;;;;;;;;;;;2.90;99.90;;;;;;5119752;28;19923;-72
2021/12/25 14:32:59;;;;;;;;;;;2.90;99.90;;;;;;5123467;28;19926;-72
2021/12/25 14:35:27;;;;;;;;;;;2.80;99.90;;;;;;5123253;28;19923;-70
2021/12/25 14:37:55;;;;;;;;;;;2.90;99.90;;;;;;5122984;28;19991;-71
2021/12/25 14:40:23;;;;;;;;;;;2.90;99.90;;;;;;5123983;28;19919;-71
2021/12/25 14:42:50;;;;;;;;;;;2.90;99.90;;;;;;5123404;28;19919;-72
2021/12/25 14:45:18;;;;;;;;;;;2.80;99.90;;;;;;5145018;27;19919;-72
2021/12/25 14:47:48;;;;;;;;;;;2.80;99.90;;;;;;5147536;27;19925;-71
2021/12/25 14:50:16;;;;;;;;;;;2.80;99.90;;;;;;5146931;27;20203;-71
2021/12/25 14:52:44;;;;;;;;;;;2.70;99.90;;;;;;5147404;27;19926;-72
2021/12/25 14:55:16;;;;;;;;;;;2.70;99.90;;;;;;5147028;27;19991;-72
2021/12/25 14:57:42;;;;;;;;;;;2.70;99.90;;;;;;5147529;27;19930;-72
2021/12/25 15:00:09;;;;;;;;;;;2.70;99.90;;;;;;5147277;27;20208;-72
2021/12/25 15:02:36;;;;;;;;;;;2.70;99.90;;;;;;5147243;27;20123;-72
2021/12/25 15:05:03;;;;;;;;;;;2.70;99.90;;;;;;5147111;27;20119;-72
2021/12/25 15:07:31;;;;;;;;;;;2.60;99.90;;;;;;5148203;27;19926;-72
2021/12/25 15:09:59;;;;;;;;;;;2.60;99.90;;;;;;5149325;27;19956;-71
2021/12/25 15:12:27;;;;;;;;;;;2.60;99.90;;;;;;5147727;27;19919;-72
2021/12/25 15:14:55;;;;;;;;;;;2.60;99.90;;;;;;5146871;27;19926;-72
2021/12/25 15:17:24;;;;;;;;;;;2.60;99.90;;;;;;5146955;27;19927;-72
2021/12/25 15:19:59;;;;;;;;;;;2.50;99.90;;;;;;5147043;27;19932;-72
2021/12/25 15:22:26;;;;;;;;;;;2.60;99.90;;;;;;5146843;27;20249;-71
2021/12/25 15:24:54;;;;;;;;;;;2.50;99.90;;;;;;5146650;27;19931;-72